.
WxDataArchive / Data Records for 2011-10-30
2011-10-29 October 2011 2011-10-31

Data Records for Sunday, 30 October 2011

Time	Temp	Chill	HIndex	Humid	Dewpt	 Wind 	HiWind	WindDir	Rain 	Barom 
-----	----	-----	------	-----	-----	------	------	-------	-----	----- 
00:00	32.8	32.8	32.8	89	29.9	0	0	---	0.00	30.141 
00:05	32.7	32.7	32.7	90	30.1	0	0	---	0.00	30.141 
00:10	32.5	32.5	32.5	90	29.9	0	0	---	0.00	30.141 
00:15	32.4	32.4	32.4	90	29.8	0	0	---	0.00	30.142 
00:20	32.2	32.2	32.2	90	29.6	0	0	---	0.00	30.142 
00:25	32.1	32.1	32.1	90	29.5	0	0	---	0.00	30.142 
00:30	31.9	31.9	31.9	90	29.3	0	0	---	0.00	30.144 
00:35	31.9	31.9	31.9	90	29.3	0	0	---	0.00	30.144 
00:40	31.8	31.8	31.8	90	29.2	0	0	---	0.00	30.144 
00:45	31.8	31.8	31.8	90	29.2	0	0	---	0.00	30.146 
00:50	31.8	31.8	31.8	90	29.2	0	0	---	0.00	30.146 
00:55	31.8	31.8	31.8	90	29.2	0	0	---	0.00	30.146 
01:00	31.6	31.6	31.6	91	29.3	0	0	---	0.00	30.146 
01:05	31.5	31.5	31.5	91	29.2	0	0	---	0.00	30.146 
01:10	31.5	31.5	31.5	91	29.2	0	0	---	0.00	30.146 
01:15	31.3	31.3	31.3	91	29.0	0	0	---	0.00	30.145 
01:20	31.2	31.2	31.2	91	28.9	0	0	---	0.00	30.145 
01:25	31.0	31.0	31.0	91	28.7	0	0	---	0.00	30.145 
01:30	31.0	31.0	31.0	91	28.7	0	0	---	0.00	30.146 
01:35	30.9	30.9	30.9	91	28.6	0	0	---	0.00	30.146 
01:40	30.7	30.7	30.7	91	28.4	0	0	---	0.00	30.146 
01:45	30.7	30.7	30.7	91	28.4	0	0	---	0.00	30.147 
01:50	30.6	30.6	30.6	91	28.3	0	0	---	0.00	30.147 
01:55	30.4	30.4	30.4	91	28.1	0	0	---	0.00	30.147 
02:00	30.4	30.4	30.4	91	28.1	0	0	---	0.00	30.150 
02:05	30.3	30.3	30.3	91	28.0	0	0	---	0.00	30.150 
02:10	30.3	30.3	30.3	91	28.0	0	0	---	0.00	30.150 
02:15	30.1	30.1	30.1	91	27.8	0	0	---	0.00	30.155 
02:20	30.1	30.1	30.1	91	27.8	0	0	---	0.00	30.155 
02:25	30.1	30.1	30.1	91	27.8	0	0	---	0.00	30.155 
02:30	30.0	30.0	30.0	92	28.0	0	0	---	0.00	30.155 
02:35	30.0	30.0	30.0	92	28.0	0	0	---	0.00	30.155 
02:40	30.0	30.0	30.0	92	28.0	0	0	---	0.00	30.155 
02:45	29.8	29.8	29.8	92	27.8	0	0	---	0.00	30.150 
02:50	29.8	29.8	29.8	92	27.8	0	0	---	0.00	30.150 
02:55	29.7	29.7	29.7	92	27.7	0	0	---	0.00	30.150 
03:00	29.7	29.7	29.7	92	27.7	0	0	---	0.00	30.153 
03:05	29.5	29.5	29.5	92	27.5	0	0	---	0.00	30.153 
03:10	29.5	29.5	29.5	92	27.5	0	0	---	0.00	30.153 
03:15	29.5	29.5	29.5	92	27.5	0	0	---	0.00	30.170 
03:20	29.4	29.4	29.4	92	27.4	0	0	---	0.00	30.170 
03:25	29.4	29.4	29.4	92	27.4	0	0	---	0.00	30.170 
03:30	29.5	29.5	29.5	92	27.5	0	0	---	0.00	30.171 
03:35	29.5	29.5	29.5	92	27.5	0	0	---	0.00	30.171 
03:40	29.4	29.4	29.4	92	27.4	0	0	---	0.00	30.171 
03:45	29.4	29.4	29.4	92	27.4	0	0	---	0.00	30.169 
03:50	29.4	29.4	29.4	92	27.4	0	0	---	0.00	30.169 
03:55	29.4	29.4	29.4	92	27.4	0	0	---	0.00	30.169 
04:00	29.4	29.4	29.4	92	27.4	0	0	---	0.00	30.171 
04:05	29.4	29.4	29.4	92	27.4	0	0	---	0.00	30.171 
04:10	29.4	29.4	29.4	92	27.4	0	0	---	0.00	30.171 
04:15	29.3	29.3	29.3	92	27.3	0	0	---	0.00	30.167 
04:20	29.1	29.1	29.1	92	27.1	0	0	---	0.00	30.167 
04:25	29.1	29.1	29.1	92	27.1	0	0	---	0.00	30.167 
04:30	29.0	29.0	29.0	92	27.0	0	0	---	0.00	30.168 
04:35	29.0	29.0	29.0	92	27.0	0	0	---	0.00	30.168 
04:40	28.8	28.8	28.8	92	26.8	0	0	---	0.00	30.168 
04:45	28.8	28.8	28.8	92	26.8	0	0	---	0.00	30.170 
04:50	28.7	28.7	28.7	92	26.7	0	0	---	0.00	30.170 
04:55	28.7	28.7	28.7	92	26.7	0	0	---	0.00	30.170 
05:00	28.7	28.7	28.7	92	26.7	0	0	---	0.00	30.175 
05:05	28.5	28.5	28.5	92	26.5	0	0	---	0.00	30.175 
05:10	28.5	28.5	28.5	92	26.5	0	0	---	0.00	30.175 
05:15	28.4	28.4	28.4	92	26.4	0	0	---	0.00	30.182 
05:20	28.4	28.4	28.4	92	26.4	0	0	---	0.00	30.182 
05:25	28.4	28.4	28.4	92	26.4	0	0	---	0.00	30.182 
05:30	28.4	28.4	28.4	92	26.4	0	0	---	0.00	30.186 
05:35	28.2	28.2	28.2	92	26.2	0	0	---	0.00	30.186 
05:40	28.2	28.2	28.2	92	26.2	0	0	---	0.00	30.186 
05:45	28.1	28.1	28.1	92	26.1	0	0	---	0.00	30.188 
05:50	27.9	27.9	27.9	92	25.9	0	0	---	0.00	30.188 
05:55	27.8	27.8	27.8	92	25.8	0	0	---	0.00	30.188 
06:00	27.8	27.8	27.8	92	25.8	0	0	---	0.00	30.186 
06:05	27.6	27.6	27.6	92	25.6	0	0	---	0.00	30.186 
06:10	27.6	27.6	27.6	92	25.6	0	0	---	0.00	30.186 
06:15	27.6	27.6	27.6	92	25.6	0	0	---	0.00	30.189 
06:20	27.6	27.6	27.6	92	25.6	0	0	---	0.00	30.189 
06:25	27.6	27.6	27.6	92	25.6	0	0	---	0.00	30.189 
06:30	27.6	27.6	27.6	92	25.6	0	0	---	0.00	30.190 
06:35	27.6	27.6	27.6	92	25.6	0	0	---	0.00	30.190 
06:40	27.5	27.5	27.5	92	25.5	0	0	---	0.00	30.190 
06:45	27.5	27.5	27.5	93	25.7	0	0	---	0.00	30.191 
06:50	27.5	27.5	27.5	92	25.5	0	0	---	0.00	30.191 
06:55	27.5	27.5	27.5	93	25.7	0	0	---	0.00	30.191 
07:00	27.5	27.5	27.5	93	25.7	0	0	---	0.00	30.196 
07:05	27.3	27.3	27.3	93	25.5	0	0	---	0.00	30.196 
07:10	27.3	27.3	27.3	93	25.5	0	0	---	0.00	30.196 
07:15	27.3	27.3	27.3	93	25.5	0	0	---	0.00	30.209 
07:20	27.2	27.2	27.2	93	25.4	0	0	---	0.00	30.209 
07:25	27.2	27.2	27.2	93	25.4	0	0	---	0.00	30.209 
07:30	27.2	27.2	27.2	93	25.4	0	0	---	0.00	30.211 
07:35	27.2	27.2	27.2	92	25.2	0	0	---	0.00	30.211 
07:40	27.0	27.0	27.0	92	25.0	0	0	---	0.00	30.211 
07:45	27.0	27.0	27.0	93	25.3	0	0	---	0.00	30.213 
07:50	26.9	26.9	26.9	92	24.9	0	0	---	0.00	30.213 
07:55	26.9	26.9	26.9	92	24.9	0	0	---	0.00	30.213 
08:00	26.7	26.7	26.7	92	24.7	0	0	---	0.00	30.213 
08:05	26.7	26.7	26.7	92	24.7	0	0	---	0.00	30.213 
08:10	26.6	26.6	26.6	92	24.6	0	0	---	0.00	30.213 
08:15	26.6	26.6	26.6	92	24.6	0	0	---	0.00	30.219 
08:20	26.6	26.6	26.6	93	24.9	0	0	---	0.00	30.219 
08:25	26.7	26.7	26.7	93	25.0	0	0	---	0.00	30.219 
08:30	26.7	26.7	26.7	93	25.0	0	0	---	0.00	30.222 
08:35	26.7	26.7	26.7	93	25.0	0	0	---	0.00	30.222 
08:40	26.9	26.9	26.9	93	25.2	0	0	---	0.00	30.222 
08:45	27.0	27.0	27.0	93	25.3	0	0	---	0.00	30.231 
08:50	27.2	27.2	27.2	93	25.4	0	0	---	0.00	30.231 
08:55	27.3	27.3	27.3	93	25.5	0	0	---	0.00	30.231 
09:00	27.6	27.6	27.6	93	25.8	0	0	---	0.00	30.242 
09:05	27.8	27.8	27.8	93	26.0	0	0	---	0.00	30.242 
09:10	28.2	28.2	28.2	94	26.7	0	0	---	0.00	30.242 
09:15	29.0	29.0	29.0	94	27.5	0	0	---	0.00	30.244 
09:20	29.7	29.7	29.7	94	28.2	0	0	---	0.00	30.244 
09:25	30.6	30.6	30.6	95	29.3	0	0	---	0.00	30.244 
09:30	31.5	31.5	31.5	95	30.2	0	0	---	0.00	30.237 
09:35	32.4	32.4	32.4	95	31.1	0	1	315	0.00	30.237 
09:40	32.9	32.9	32.9	95	31.6	0	1	315	0.00	30.237 
09:45	33.7	33.7	33.7	95	32.4	0	0	---	0.01	30.236 
09:50	34.6	34.6	34.6	95	33.3	0	0	---	0.00	30.236 
09:55	35.6	35.6	35.6	95	34.3	0	1	315	0.00	30.236 
10:00	36.8	36.8	36.8	95	35.5	0	1	315	0.00	30.230 
10:05	37.8	37.8	37.8	93	36.0	0	1	315	0.00	30.230 
10:10	38.5	38.5	38.5	92	36.4	0	1	315	0.00	30.230 
10:15	38.9	38.9	38.9	90	36.2	0	3	315	0.00	30.234 
10:20	39.3	39.3	39.3	88	36.0	0	1	315	0.00	30.234 
10:25	39.8	39.8	39.8	86	36.0	0	1	315	0.00	30.234 
10:30	40.3	40.3	40.3	85	36.2	0	0	---	0.00	30.232 
10:35	40.8	40.8	40.8	83	36.0	0	1	315	0.00	30.232 
10:40	41.2	41.2	41.2	82	36.1	0	1	315	0.00	30.232 
10:45	41.6	41.6	41.6	80	35.9	0	1	315	0.00	30.230 
10:50	42.2	42.2	42.2	79	36.2	0	1	315	0.00	30.230 
10:55	42.6	42.6	42.6	77	35.9	0	0	---	0.00	30.230 
11:00	43.1	43.1	43.1	75	35.7	0	1	315	0.00	30.224 
11:05	43.5	43.5	43.5	73	35.4	0	1	315	0.00	30.224 
11:10	43.9	43.9	43.9	69	34.4	0	3	315	0.00	30.224 
11:15	44.2	44.2	44.2	66	33.6	0	2	90	0.00	30.222 
11:20	44.6	44.6	44.6	66	34.0	0	2	248	0.00	30.222 
11:25	44.9	44.9	44.9	62	32.7	1	3	45	0.00	30.222 
11:30	45.1	45.1	45.1	61	32.5	1	3	135	0.00	30.216 
11:35	45.2	45.2	45.2	61	32.6	1	5	90	0.00	30.216 
11:40	45.2	45.2	45.2	62	33.0	1	3	112	0.00	30.216 
11:45	45.7	45.7	45.7	62	33.4	0	3	112	0.00	30.215 
11:50	46.1	46.1	46.1	60	33.0	1	3	112	0.00	30.215 
11:55	46.7	46.7	46.7	62	34.4	0	3	270	0.00	30.215 
12:00	47.0	47.0	47.0	61	34.3	0	2	270	0.00	30.216 
12:05	47.3	47.3	47.3	58	33.3	1	5	270	0.00	30.216 
12:10	47.4	47.4	47.4	57	32.9	1	4	248	0.00	30.216 
12:15	47.4	47.4	47.4	57	32.9	1	3	292	0.00	30.215 
12:20	47.6	47.6	47.6	57	33.1	1	4	0	0.00	30.215 
12:25	47.9	47.9	47.9	55	32.5	1	3	225	0.00	30.215 
12:30	48.0	48.0	48.0	54	32.2	1	4	112	0.00	30.210 
12:35	48.0	48.0	48.0	54	32.2	1	5	112	0.00	30.210 
12:40	48.0	48.0	48.0	57	33.5	1	4	90	0.00	30.210 
12:45	48.2	48.2	48.2	57	33.7	1	3	90	0.00	30.206 
12:50	48.0	48.0	48.0	55	32.6	1	3	22	0.00	30.206 
12:55	48.0	48.0	48.0	55	32.6	0	2	45	0.00	30.206 
13:00	48.0	48.0	48.0	56	33.1	0	2	45	0.00	30.197 
13:05	48.2	48.2	48.2	54	32.3	1	4	90	0.00	30.197 
13:10	48.2	48.2	48.2	56	33.2	1	3	90	0.00	30.197 
13:15	48.2	48.2	48.2	56	33.2	1	2	248	0.00	30.196 
13:20	48.3	48.3	48.3	55	32.9	1	3	158	0.00	30.196 
13:25	48.6	48.6	48.6	54	32.7	1	3	90	0.00	30.196 
13:30	48.9	48.9	48.9	55	33.5	0	3	270	0.00	30.184 
13:35	48.9	48.9	48.9	53	32.5	1	4	292	0.00	30.184 
13:40	49.1	49.1	49.1	52	32.2	1	4	292	0.00	30.184 
13:45	49.1	49.1	49.1	53	32.7	1	4	248	0.00	30.179 
13:50	49.1	49.1	49.1	51	31.8	1	4	90	0.00	30.179 
13:55	49.1	49.1	49.1	53	32.7	1	4	315	0.00	30.179 
14:00	49.2	49.2	49.2	52	32.3	1	4	112	0.00	30.168 
14:05	49.4	49.4	49.4	53	33.0	0	2	68	0.00	30.168 
14:10	49.5	49.5	49.5	52	32.6	1	3	68	0.00	30.168 
14:15	49.5	49.5	49.5	50	31.6	1	6	68	0.00	30.156 
14:20	49.6	49.6	49.6	50	31.7	0	2	90	0.00	30.156 
14:25	49.9	49.9	49.9	50	32.0	0	2	90	0.00	30.156 
14:30	50.1	50.1	50.1	47	30.7	1	4	90	0.00	30.150 
14:35	50.4	50.4	50.4	47	30.9	1	3	45	0.00	30.150 
14:40	50.5	50.5	50.5	45	30.0	2	6	90	0.00	30.150 
14:45	50.5	50.5	50.5	46	30.5	2	5	112	0.00	30.143 
14:50	50.8	50.8	50.8	48	31.8	1	5	112	0.00	30.143 
14:55	51.1	51.1	51.1	46	31.0	2	6	90	0.00	30.143 
15:00	51.3	51.3	51.3	45	30.7	1	4	90	0.00	30.135 
15:05	51.6	51.6	51.6	46	31.5	1	3	68	0.00	30.135 
15:10	51.7	51.7	51.7	46	31.6	1	4	90	0.00	30.135 
15:15	51.7	51.7	51.7	43	29.9	2	9	90	0.00	30.124 
15:20	51.9	51.9	51.9	43	30.1	2	13	90	0.00	30.124 
15:25	52.0	52.0	52.0	41	29.0	3	13	68	0.00	30.124 
15:30	52.3	52.3	52.3	45	31.6	1	10	270	0.00	30.115 
15:35	52.6	52.6	52.6	43	30.7	2	5	112	0.00	30.115 
15:40	52.8	52.8	52.8	41	29.8	2	7	90	0.00	30.115 
15:45	52.9	52.9	52.9	41	29.8	2	8	112	0.00	30.111 
15:50	52.8	52.8	52.8	43	30.9	1	4	68	0.00	30.111 
15:55	52.8	52.8	52.8	43	30.9	1	5	248	0.00	30.111 
16:00	52.8	52.8	52.8	43	30.9	1	3	90	0.00	30.105 
16:05	52.9	52.9	52.9	41	29.8	2	6	112	0.00	30.105 
16:10	53.1	53.1	53.1	41	30.0	2	5	90	0.00	30.105 
16:15	53.2	53.2	53.2	40	29.5	1	4	45	0.00	30.102 
16:20	53.3	53.3	53.3	41	30.2	1	3	135	0.00	30.102 
16:25	53.3	53.3	53.3	39	29.0	1	4	112	0.00	30.102 
16:30	53.3	53.3	53.3	40	29.6	1	4	90	0.00	30.101 
16:35	53.3	53.3	53.3	39	29.0	1	4	112	0.00	30.101 
16:40	53.3	53.3	53.3	41	30.2	1	4	112	0.00	30.101 
16:45	53.2	53.2	53.2	40	29.5	1	3	45	0.00	30.100 
16:50	53.2	53.2	53.2	40	29.5	1	5	112	0.00	30.100 
16:55	53.2	53.2	53.2	40	29.5	1	4	270	0.00	30.100 
17:00	53.2	53.2	53.2	40	29.5	1	4	270	0.00	30.096 
17:05	53.2	53.2	53.2	40	29.5	1	4	112	0.00	30.096 
17:10	53.3	53.3	53.3	40	29.6	1	4	112	0.00	30.096 
17:15	53.5	53.5	53.5	40	29.8	1	2	112	0.00	30.091 
17:20	53.5	53.5	53.5	41	30.4	1	5	68	0.00	30.091 
17:25	53.6	53.6	53.6	42	31.1	1	4	90	0.00	30.091 
17:30	53.6	53.6	53.6	41	30.5	1	3	90	0.00	30.090 
17:35	53.8	53.8	53.8	41	30.7	1	3	90	0.00	30.090 
17:40	53.6	53.6	53.6	41	30.5	1	3	90	0.00	30.090 
17:45	53.5	53.5	53.5	41	30.4	1	3	90	0.00	30.086 
17:50	53.3	53.3	53.3	41	30.2	1	5	112	0.00	30.086 
17:55	53.2	53.2	53.2	41	30.1	0	2	112	0.00	30.086 
18:00	52.9	52.9	52.9	42	30.4	0	3	112	0.00	30.088 
18:05	52.8	52.8	52.8	42	30.3	1	4	90	0.00	30.088 
18:10	52.8	52.8	52.8	42	30.3	0	2	90	0.00	30.088 
18:15	52.6	52.6	52.6	42	30.2	1	3	90	0.00	30.090 
18:20	52.5	52.5	52.5	43	30.7	0	2	90	0.00	30.090 
18:25	52.3	52.3	52.3	43	30.5	0	3	90	0.00	30.090 
18:30	52.3	52.3	52.3	42	29.9	1	2	112	0.00	30.097 
18:35	52.2	52.2	52.2	43	30.4	0	4	112	0.00	30.097 
18:40	52.2	52.2	52.2	43	30.4	0	2	112	0.00	30.097 
18:45	52.2	52.2	52.2	43	30.4	0	2	112	0.00	30.102 
18:50	52.0	52.0	52.0	44	30.8	0	2	112	0.00	30.102 
18:55	52.0	52.0	52.0	44	30.8	0	1	248	0.00	30.102 
19:00	51.9	51.9	51.9	44	30.7	0	1	248	0.00	30.111 
19:05	51.9	51.9	51.9	45	31.2	0	2	180	0.00	30.111 
19:10	52.0	52.0	52.0	44	30.8	1	4	225	0.00	30.111 
19:15	52.3	52.3	52.3	48	33.2	2	9	270	0.00	30.116 
19:20	52.3	52.3	52.3	48	33.2	1	3	292	0.00	30.116 
19:25	52.3	52.3	52.3	47	32.7	0	2	292	0.00	30.116 
19:30	52.3	52.3	52.3	46	32.1	0	4	292	0.00	30.120 
19:35	52.3	52.3	52.3	46	32.1	0	2	292	0.00	30.120 
19:40	52.2	52.2	52.2	47	32.6	0	1	292	0.00	30.120 
19:45	52.2	52.2	52.2	47	32.6	1	3	292	0.00	30.122 
19:50	52.2	52.2	52.2	48	33.1	1	5	248	0.00	30.122 
19:55	52.2	52.2	52.2	50	34.1	0	4	248	0.00	30.122 
20:00	52.2	52.2	52.2	51	34.6	0	1	248	0.00	30.120 
20:05	51.9	51.9	51.9	52	34.8	0	1	248	0.00	30.120 
20:10	51.7	51.7	51.7	51	34.2	0	2	248	0.00	30.120 
20:15	51.6	51.6	51.6	51	34.1	0	1	248	0.00	30.116 
20:20	51.4	51.4	51.4	51	33.9	0	1	248	0.00	30.116 
20:25	51.4	51.4	51.4	52	34.4	0	1	248	0.00	30.116 
20:30	51.3	51.3	51.3	53	34.8	0	3	338	0.00	30.121 
20:35	51.3	51.3	51.3	51	33.8	1	7	248	0.00	30.121 
20:40	51.4	51.4	51.4	51	33.9	0	3	68	0.00	30.121 
20:45	51.4	51.4	51.4	51	33.9	0	1	68	0.00	30.119 
20:50	51.6	51.6	51.6	50	33.6	2	6	270	0.00	30.119 
20:55	51.6	51.6	51.6	51	34.1	2	7	248	0.00	30.119 
21:00	51.4	51.4	51.4	50	33.4	0	3	0	0.00	30.116 
21:05	51.4	51.4	51.4	50	33.4	1	3	68	0.00	30.116 
21:10	51.4	51.4	51.4	49	32.9	1	3	90	0.00	30.116 
21:15	51.6	51.6	51.6	48	32.6	1	4	68	0.00	30.098 
21:20	51.6	51.6	51.6	47	32.0	1	3	68	0.00	30.098 
21:25	51.7	51.7	51.7	47	32.1	1	5	68	0.00	30.098 
21:30	51.9	51.9	51.9	46	31.8	1	5	90	0.00	30.095 
21:35	51.9	51.9	51.9	46	31.8	1	4	90	0.00	30.095 
21:40	51.9	51.9	51.9	46	31.8	1	4	90	0.00	30.095 
21:45	52.0	52.0	52.0	46	31.9	1	4	68	0.00	30.096 
21:50	51.9	51.9	51.9	46	31.8	1	6	68	0.00	30.096 
21:55	51.9	51.9	51.9	46	31.8	1	4	112	0.00	30.096 
22:00	51.9	51.9	51.9	46	31.8	1	5	112	0.00	30.095 
22:05	51.7	51.7	51.7	47	32.1	1	2	112	0.00	30.095 
22:10	51.6	51.6	51.6	47	32.0	1	6	112	0.00	30.095 
22:15	51.6	51.6	51.6	46	31.5	1	4	90	0.00	30.087 
22:20	51.6	51.6	51.6	47	32.0	0	2	68	0.00	30.087 
22:25	51.6	51.6	51.6	47	32.0	1	4	112	0.00	30.087 
22:30	51.6	51.6	51.6	47	32.0	1	3	112	0.00	30.091 
22:35	51.6	51.6	51.6	47	32.0	0	2	112	0.00	30.091 
22:40	51.4	51.4	51.4	48	32.4	0	2	112	0.00	30.091 
22:45	51.3	51.3	51.3	48	32.3	0	3	90	0.00	30.090 
22:50	51.1	51.1	51.1	49	32.6	0	2	248	0.00	30.090 
22:55	51.0	51.0	51.0	48	32.0	0	1	248	0.00	30.090 
23:00	51.0	51.0	51.0	49	32.5	0	1	248	0.00	30.088 
23:05	50.8	50.8	50.8	49	32.3	0	2	248	0.00	30.088 
23:10	50.8	50.8	50.8	49	32.3	0	2	135	0.00	30.088 
23:15	50.7	50.7	50.7	50	32.7	0	2	135	0.00	30.085 
23:20	50.5	50.5	50.5	50	32.6	0	4	68	0.00	30.085 
23:25	50.4	50.4	50.4	52	33.4	0	2	90	0.00	30.085 
23:30	50.1	50.1	50.1	52	33.2	0	2	90	0.00	30.083 
23:35	49.8	49.8	49.8	53	33.4	0	2	90	0.00	30.083 
23:40	49.5	49.5	49.5	53	33.1	0	2	90	0.00	30.083 
23:45	49.4	49.4	49.4	53	33.0	0	1	112	0.00	30.085 
23:50	49.2	49.2	49.2	53	32.8	0	2	112	0.00	30.085 
23:55	49.2	49.2	49.2	53	32.8	0	1	112	0.00	30.085 

CoCoRaHS
IN-AL-39
A2 Web Hosting
Creative Commons License
GoDaddy
search engine by freefind advanced

loaded 2018-11-14 03:50:24 • last modified 2010-11-18 10:43:29
Privacy PolicyDisclaimer
• wx.awcolley.com is powered by PmWiki v.2002016 •
• all content (unless otherwise noted) © 2018 A W Colley